createdAt,value
2018-11-13T00:01:01.723Z,5.90
2018-11-13T00:03:37.454Z,5.83
2018-11-13T00:06:05.970Z,5.90
2018-11-13T00:08:34.821Z,5.60
2018-11-13T00:11:03.792Z,5.63
2018-11-13T00:13:32.533Z,6.13
2018-11-13T00:16:01.791Z,5.93
2018-11-13T00:18:38.496Z,5.37
2018-11-13T00:21:07.225Z,5.77
2018-11-13T00:23:36.305Z,5.90
2018-11-13T00:26:05.471Z,5.73
2018-11-13T00:28:34.198Z,6.23
2018-11-13T00:31:02.908Z,5.77
2018-11-13T00:33:31.831Z,5.50
2018-11-13T00:36:00.476Z,6.70
2018-11-13T00:38:30.122Z,5.73
2018-11-13T00:41:00.145Z,6.10
2018-11-13T00:43:28.826Z,6.17
2018-11-13T00:45:57.444Z,6.37
2018-11-13T00:48:28.157Z,6.40
2018-11-13T00:50:57.258Z,5.63
2018-11-13T00:53:27.238Z,6.23
2018-11-13T00:55:55.858Z,6.70
2018-11-13T00:58:24.770Z,6.63
2018-11-13T01:00:54.335Z,6.40
2018-11-13T01:03:23.411Z,6.77
2018-11-13T01:05:52.810Z,7.23
2018-11-13T01:08:21.238Z,7.47
2018-11-13T01:10:49.917Z,7.77
2018-11-13T01:13:18.806Z,7.03
2018-11-13T01:15:48.974Z,8.37
2018-11-13T01:18:17.647Z,7.80
2018-11-13T01:20:47.367Z,7.87
2018-11-13T01:23:16.285Z,7.50
2018-11-13T01:25:54.141Z,8.77
2018-11-13T01:28:22.841Z,8.00
2018-11-13T01:30:52.155Z,8.60
2018-11-13T01:33:24.506Z,8.30
2018-11-13T01:35:54.454Z,8.73
2018-11-13T01:38:43.677Z,9.30
2018-11-13T01:41:17.166Z,9.53
2018-11-13T01:43:53.112Z,10.83
2018-11-13T01:46:22.016Z,10.33
2018-11-13T01:48:54.604Z,10.47
2018-11-13T01:51:33.154Z,9.73
2018-11-13T01:54:03.416Z,10.23
2018-11-13T01:56:32.038Z,10.90
2018-11-13T01:59:00.775Z,10.93
2018-11-13T02:01:29.331Z,11.13
2018-11-13T02:03:58.562Z,12.73
2018-11-13T02:06:28.598Z,12.83
2018-11-13T02:08:58.537Z,11.60
2018-11-13T02:11:27.111Z,12.60
2018-11-13T02:13:55.796Z,12.50
2018-11-13T02:16:24.702Z,12.47
2018-11-13T02:18:55.240Z,11.77
2018-11-13T02:21:24.035Z,11.63
2018-11-13T02:23:53.504Z,12.17
2018-11-13T02:26:25.290Z,12.43
2018-11-13T02:28:54.452Z,13.17
2018-11-13T02:31:23.180Z,12.27
2018-11-13T02:33:52.577Z,12.63
2018-11-13T02:36:21.346Z,13.10
2018-11-13T02:38:50.057Z,14.57
2018-11-13T02:41:18.627Z,13.17
2018-11-13T02:43:48.030Z,14.23
2018-11-13T02:46:17.490Z,13.37
2018-11-13T02:48:46.167Z,13.27
2018-11-13T02:51:15.190Z,13.73
2018-11-13T02:53:46.050Z,14.37
2018-11-13T02:56:16.138Z,12.93
2018-11-13T02:58:48.848Z,13.70
2018-11-13T03:01:17.967Z,13.63
2018-11-13T03:03:47.102Z,13.70
2018-11-13T03:06:15.821Z,14.53
2018-11-13T03:08:46.060Z,13.07
2018-11-13T03:11:16.252Z,14.30
2018-11-13T03:13:45.352Z,13.90
2018-11-13T03:16:14.412Z,14.03
2018-11-13T03:18:43.074Z,13.27
2018-11-13T03:21:11.720Z,15.40
2018-11-13T03:23:40.320Z,14.23
2018-11-13T03:26:10.994Z,15.00
2018-11-13T03:28:43.319Z,14.83
2018-11-13T03:31:12.232Z,15.03
2018-11-13T03:33:41.831Z,14.37
2018-11-13T03:36:10.581Z,15.20
2018-11-13T03:38:40.678Z,15.30
2018-11-13T03:41:10.429Z,14.93
2018-11-13T03:43:39.080Z,14.27
2018-11-13T03:46:08.344Z,15.27
2018-11-13T03:48:37.115Z,14.87
2018-11-13T03:51:05.785Z,14.17
2018-11-13T03:53:34.494Z,14.33
2018-11-13T03:56:03.141Z,15.27
2018-11-13T03:58:32.541Z,15.40
2018-11-13T04:01:01.137Z,16.37
2018-11-13T04:03:33.522Z,15.00
2018-11-13T04:06:03.190Z,16.03
2018-11-13T04:08:31.982Z,15.40
2018-11-13T04:11:02.812Z,14.27
2018-11-13T04:13:35.635Z,15.90
2018-11-13T04:16:04.418Z,15.23
2018-11-13T04:18:33.169Z,13.63
2018-11-13T04:21:02.312Z,14.23
2018-11-13T04:23:31.151Z,13.67
2018-11-13T04:25:59.994Z,14.77
2018-11-13T04:28:28.842Z,14.73
2018-11-13T04:30:59.157Z,13.20
2018-11-13T04:33:27.848Z,13.13
2018-11-13T04:36:01.260Z,13.60
2018-11-13T04:38:30.958Z,13.67
2018-11-13T04:40:59.641Z,14.17
2018-11-13T04:43:28.333Z,13.27
2018-11-13T04:45:57.213Z,13.83
2018-11-13T04:48:25.825Z,14.77
2018-11-13T04:50:54.721Z,15.07
2018-11-13T04:53:23.774Z,13.40
2018-11-13T04:55:52.466Z,15.13
2018-11-13T04:58:24.735Z,14.37
2018-11-13T05:00:54.706Z,14.90
2018-11-13T05:03:23.370Z,13.90
2018-11-13T05:05:53.728Z,13.70
2018-11-13T05:08:23.977Z,12.10
2018-11-13T05:10:52.875Z,11.43
2018-11-13T05:13:21.565Z,12.10
2018-11-13T05:15:54.016Z,12.53
2018-11-13T05:18:24.043Z,12.10
2018-11-13T05:20:54.124Z,11.70
2018-11-13T05:23:28.127Z,11.57
2018-11-13T05:25:57.083Z,12.43
2018-11-13T05:28:25.775Z,12.07
2018-11-13T05:30:54.670Z,11.70
2018-11-13T05:33:25.297Z,11.60
2018-11-13T05:35:54.018Z,12.40
2018-11-13T05:38:22.924Z,11.37
2018-11-13T05:40:51.795Z,12.47
2018-11-13T05:43:26.738Z,10.83
2018-11-13T05:45:57.888Z,10.63
2018-11-13T05:48:30.592Z,10.00
2018-11-13T05:50:59.461Z,10.97
2018-11-13T05:53:29.517Z,11.00
2018-11-13T05:55:58.734Z,10.60
2018-11-13T05:58:27.449Z,9.20
2018-11-13T06:00:56.279Z,10.27
2018-11-13T06:03:25.251Z,11.63
2018-11-13T06:05:57.641Z,10.53
2018-11-13T06:08:26.439Z,10.00
2018-11-13T06:10:55.159Z,10.80
2018-11-13T06:13:24.536Z,10.37
2018-11-13T06:15:54.332Z,10.23
2018-11-13T06:18:30.285Z,10.07
2018-11-13T06:20:59.231Z,10.53
2018-11-13T06:23:28.697Z,10.77
2018-11-13T06:25:57.599Z,10.40
2018-11-13T06:28:26.449Z,9.50
2018-11-13T06:31:00.176Z,11.10
2018-11-13T06:33:33.754Z,10.80
2018-11-13T06:36:02.717Z,10.53
2018-11-13T06:38:31.931Z,10.20
2018-11-13T06:41:01.440Z,10.77
2018-11-13T06:43:30.552Z,10.50
2018-11-13T06:45:59.258Z,10.07
2018-11-13T06:48:27.845Z,9.77
2018-11-13T06:50:56.651Z,9.83
2018-11-13T06:53:26.515Z,10.30
2018-11-13T06:55:58.955Z,10.77
2018-11-13T06:58:27.891Z,10.03
2018-11-13T07:00:56.724Z,12.33
2018-11-13T07:03:25.647Z,10.87
2018-11-13T07:05:54.632Z,9.87
2018-11-13T07:08:23.827Z,7.90
2018-11-13T07:10:52.610Z,9.40
2018-11-13T07:13:21.581Z,8.60
2018-11-13T07:15:50.199Z,8.33
2018-11-13T07:18:18.883Z,7.27
2018-11-13T07:20:47.665Z,8.00
2018-11-13T07:23:16.922Z,8.20
2018-11-13T07:25:46.022Z,5.53
2018-11-13T07:28:15.857Z,7.70
2018-11-13T07:30:44.554Z,6.20
2018-11-13T07:33:13.771Z,5.23
2018-11-13T07:35:45.864Z,6.33
2018-11-13T07:38:15.784Z,5.13
2018-11-13T07:40:45.981Z,5.50
2018-11-13T07:43:14.942Z,4.20
2018-11-13T07:45:43.840Z,3.97
2018-11-13T07:48:17.350Z,3.43
2018-11-13T07:50:46.535Z,3.40
2018-11-13T07:53:17.518Z,3.50
2018-11-13T07:55:49.814Z,3.27
2018-11-13T07:58:20.322Z,2.20
2018-11-13T08:00:49.344Z,2.27
2018-11-13T08:03:34.068Z,2.60
2018-11-13T08:06:03.652Z,2.23
2018-11-13T08:08:32.420Z,1.63
2018-11-13T08:11:02.307Z,2.03
2018-11-13T08:13:31.890Z,1.63
2018-11-13T08:16:01.251Z,1.50
2018-11-13T08:18:30.157Z,1.00
2018-11-13T08:21:06.536Z,0.97
2018-11-13T08:23:50.227Z,1.10
2018-11-13T08:26:22.894Z,0.80
2018-11-13T08:28:52.163Z,1.07
2018-11-13T08:31:21.056Z,1.20
2018-11-13T08:33:50.265Z,1.47
2018-11-13T08:36:19.258Z,1.13
2018-11-13T08:38:55.077Z,1.13
2018-11-13T08:41:24.051Z,1.00
2018-11-13T08:43:53.044Z,1.03
2018-11-13T08:46:21.659Z,0.90
2018-11-13T08:48:51.726Z,1.80
2018-11-13T08:51:20.432Z,1.33
2018-11-13T08:53:48.977Z,1.20
2018-11-13T08:58:47.821Z,1.40
2018-11-13T09:01:18.043Z,1.13
2018-11-13T09:03:50.368Z,0.93
2018-11-13T09:06:19.492Z,1.30
2018-11-13T09:08:48.239Z,1.23
2018-11-13T09:11:17.542Z,1.03
2018-11-13T09:13:46.972Z,1.57
2018-11-13T09:16:16.367Z,1.17
2018-11-13T09:18:45.207Z,1.87
2018-11-13T09:21:14.377Z,1.10
2018-11-13T09:23:44.439Z,1.03
2018-11-13T09:26:13.181Z,1.23
2018-11-13T09:28:43.436Z,1.73
2018-11-13T09:31:12.443Z,1.33
2018-11-13T09:33:55.265Z,1.17
2018-11-13T09:36:24.771Z,1.23
2018-11-13T09:38:53.917Z,1.10
2018-11-13T09:41:23.063Z,1.00
2018-11-13T09:43:52.612Z,0.97
2018-11-13T09:46:21.383Z,1.13
2018-11-13T09:48:52.342Z,0.97
2018-11-13T09:51:21.197Z,1.20
2018-11-13T09:53:51.273Z,1.17
2018-11-13T09:56:20.048Z,1.13
2018-11-13T09:58:49.243Z,1.10
2018-11-13T10:01:18.409Z,1.00
2018-11-13T10:03:47.849Z,0.90
2018-11-13T10:06:16.262Z,0.70
2018-11-13T10:08:45.108Z,1.40
2018-11-13T10:11:16.393Z,0.93
2018-11-13T10:13:45.472Z,1.13
2018-11-13T10:16:14.642Z,1.30
2018-11-13T10:18:43.589Z,0.80
2018-11-13T10:21:12.537Z,1.13
2018-11-13T10:23:41.396Z,1.30
2018-11-13T10:26:10.273Z,1.10
2018-11-13T10:28:38.946Z,1.67
2018-11-13T10:31:07.915Z,1.27
2018-11-13T10:33:36.720Z,1.43
2018-11-13T10:36:06.155Z,1.23
2018-11-13T10:38:34.868Z,1.03
2018-11-13T10:41:03.561Z,1.10
2018-11-13T10:43:33.056Z,1.80
2018-11-13T10:46:02.207Z,1.37
2018-11-13T10:48:31.218Z,2.13
2018-11-13T10:51:03.586Z,0.83
2018-11-13T10:53:32.520Z,1.10
2018-11-13T10:56:02.263Z,1.03
2018-11-13T10:58:32.823Z,1.17
2018-11-13T11:01:07.328Z,1.00
2018-11-13T11:03:46.787Z,1.10
2018-11-13T11:06:15.693Z,1.13
2018-11-13T11:08:44.926Z,0.97
2018-11-13T11:11:14.037Z,1.40
2018-11-13T11:13:43.499Z,1.60
2018-11-13T11:16:13.737Z,1.47
2018-11-13T11:18:43.020Z,1.53
2018-11-13T11:21:12.295Z,1.23
2018-11-13T11:23:41.345Z,1.80
2018-11-13T11:26:14.254Z,1.30
2018-11-13T11:28:43.542Z,1.90
2018-11-13T11:31:20.962Z,1.73
2018-11-13T11:33:49.766Z,1.40
2018-11-13T11:36:18.711Z,2.33
2018-11-13T11:38:47.660Z,1.53
2018-11-13T11:41:17.180Z,2.03
2018-11-13T11:43:46.505Z,1.63
2018-11-13T11:46:15.812Z,2.13
2018-11-13T11:48:45.006Z,1.63
2018-11-13T11:51:14.416Z,1.77
2018-11-13T11:53:43.248Z,2.03
2018-11-13T11:56:11.955Z,1.67
2018-11-13T11:58:40.813Z,1.17
2018-11-13T12:01:10.045Z,1.80
2018-11-13T12:03:39.449Z,1.93
2018-11-13T12:06:08.290Z,1.67
2018-11-13T12:08:37.513Z,1.80
2018-11-13T12:11:06.649Z,2.13
2018-11-13T12:13:35.855Z,1.97
2018-11-13T12:16:05.557Z,1.70
2018-11-13T12:18:38.763Z,2.90
2018-11-13T12:21:08.580Z,1.33
2018-11-13T12:23:37.968Z,1.83
2018-11-13T12:26:07.580Z,2.07
2018-11-13T12:28:38.073Z,1.53
2018-11-13T12:31:08.640Z,1.93
2018-11-13T12:33:37.899Z,1.90
2018-11-13T12:36:15.881Z,2.40
2018-11-13T12:38:48.915Z,1.80
2018-11-13T12:44:11.344Z,1.40
2018-11-13T12:49:37.900Z,2.20
2018-11-13T12:52:13.295Z,1.97
2018-11-13T12:54:43.637Z,1.80
2018-11-13T12:57:14.229Z,2.33
2018-11-13T12:59:44.042Z,2.20
2018-11-13T13:02:13.227Z,2.20
2018-11-13T13:04:42.183Z,1.90
2018-11-13T13:07:11.348Z,2.00
2018-11-13T13:09:40.683Z,2.63
2018-11-13T13:12:11.029Z,3.07
2018-11-13T13:14:40.772Z,3.07
2018-11-13T13:17:10.145Z,2.37
2018-11-13T13:19:39.174Z,2.00
2018-11-13T13:22:09.868Z,2.33
2018-11-13T13:24:41.854Z,2.23
2018-11-13T13:27:12.677Z,2.10
2018-11-13T13:29:42.820Z,2.10
2018-11-13T13:32:17.603Z,2.57
2018-11-13T13:35:01.244Z,2.30
2018-11-13T13:37:32.213Z,1.63
2018-11-13T13:42:31.341Z,2.37
2018-11-13T13:45:10.422Z,2.00
2018-11-13T13:47:46.909Z,2.30
2018-11-13T13:51:20.727Z,2.40
2018-11-13T13:53:56.522Z,2.00
2018-11-13T13:56:27.076Z,2.73
2018-11-13T13:58:57.724Z,3.30
2018-11-13T14:01:27.289Z,2.80
2018-11-13T14:03:56.806Z,2.37
2018-11-13T14:06:26.155Z,2.40
2018-11-13T14:08:55.516Z,2.33
2018-11-13T14:11:25.000Z,2.40
2018-11-13T14:13:54.901Z,2.13
2018-11-13T14:16:23.874Z,2.13
2018-11-13T14:18:52.965Z,1.87
2018-11-13T14:21:21.929Z,2.77
2018-11-13T14:23:51.054Z,1.83
2018-11-13T14:26:36.204Z,2.30
2018-11-13T14:29:05.542Z,2.40
2018-11-13T14:31:34.957Z,1.90
2018-11-13T14:34:04.045Z,2.10
2018-11-13T14:36:33.172Z,2.23
2018-11-13T14:39:02.757Z,2.57
2018-11-13T14:41:32.200Z,1.57
2018-11-13T14:44:01.754Z,1.80
2018-11-13T14:46:30.782Z,2.80
2018-11-13T14:49:00.010Z,2.20
2018-11-13T14:51:29.458Z,2.30
2018-11-13T14:54:08.276Z,2.20
2018-11-13T14:56:42.733Z,2.07
2018-11-13T14:59:11.752Z,2.50
2018-11-13T15:01:40.531Z,2.20
2018-11-13T15:04:09.724Z,2.07
2018-11-13T15:06:38.975Z,2.23
2018-11-13T15:09:14.590Z,2.20
2018-11-13T15:11:44.753Z,2.13
2018-11-13T15:14:13.734Z,1.97
2018-11-13T15:16:42.841Z,2.20
2018-11-13T15:19:12.927Z,2.67
2018-11-13T15:21:41.871Z,2.77
2018-11-13T15:24:10.767Z,3.37
2018-11-13T15:26:39.583Z,2.13
2018-11-13T15:29:08.597Z,2.83
2018-11-13T15:31:37.689Z,2.00
2018-11-13T15:34:06.508Z,2.57
2018-11-13T15:36:35.591Z,1.97
2018-11-13T15:39:06.980Z,2.17
2018-11-13T15:41:35.920Z,1.67
2018-11-13T15:44:05.424Z,2.63
2018-11-13T15:46:34.324Z,2.47
2018-11-13T15:49:03.301Z,2.00
2018-11-13T15:51:32.523Z,2.33
2018-11-13T15:54:01.813Z,2.30
2018-11-13T15:56:31.258Z,2.20
2018-11-13T15:58:59.876Z,2.33
2018-11-13T16:01:28.949Z,2.47
2018-11-13T16:03:57.924Z,2.50
2018-11-13T16:06:27.082Z,2.33
2018-11-13T16:08:55.643Z,2.30
2018-11-13T16:11:25.375Z,2.27
2018-11-13T16:13:54.004Z,2.90
2018-11-13T16:16:22.735Z,2.27
2018-11-13T16:18:51.508Z,2.10
2018-11-13T16:21:20.730Z,2.33
2018-11-13T16:23:49.834Z,1.77
2018-11-13T16:26:19.287Z,2.40
2018-11-13T16:28:48.218Z,2.20
2018-11-13T16:31:17.269Z,2.40
2018-11-13T16:33:46.116Z,2.73
2018-11-13T16:36:15.708Z,2.23
2018-11-13T16:38:44.763Z,2.50
2018-11-13T16:41:13.748Z,2.67
2018-11-13T16:43:42.413Z,2.20
2018-11-13T16:46:11.413Z,2.30
2018-11-13T16:48:40.204Z,2.50
2018-11-13T16:51:09.281Z,2.27
2018-11-13T16:53:43.244Z,2.07
2018-11-13T16:56:11.871Z,3.07
2018-11-13T16:58:41.746Z,2.37
2018-11-13T17:01:11.008Z,2.63
2018-11-13T17:03:39.754Z,2.50
2018-11-13T17:06:08.649Z,3.40
2018-11-13T17:08:37.619Z,2.97
2018-11-13T17:11:13.644Z,3.20
2018-11-13T17:13:43.447Z,2.57
2018-11-13T17:16:12.576Z,3.23
2018-11-13T17:18:41.964Z,2.77
2018-11-13T17:21:10.871Z,2.23
2018-11-13T17:23:44.398Z,2.80
2018-11-13T17:26:14.179Z,2.87
2018-11-13T17:28:43.158Z,3.23
2018-11-13T17:31:11.980Z,3.20
2018-11-13T17:33:42.519Z,2.77
2018-11-13T17:36:11.187Z,3.07
2018-11-13T17:38:40.155Z,2.30
2018-11-13T17:41:09.086Z,2.60
2018-11-13T17:43:38.180Z,2.13
2018-11-13T17:46:17.961Z,2.63
2018-11-13T17:48:48.271Z,3.13
2018-11-13T17:51:16.924Z,3.70
2018-11-13T17:59:31.519Z,3.93
2018-11-13T18:02:00.247Z,4.20
2018-11-13T18:04:29.256Z,2.87
2018-11-13T18:06:58.041Z,2.70
2018-11-13T18:09:27.471Z,2.90
2018-11-13T18:11:56.416Z,2.57
2018-11-13T18:14:26.062Z,2.63
2018-11-13T18:16:54.936Z,3.50
2018-11-13T18:19:24.054Z,3.17
2018-11-13T18:21:53.052Z,3.00
2018-11-13T18:24:22.383Z,2.90
2018-11-13T18:26:51.365Z,2.73
2018-11-13T18:29:20.893Z,2.60
2018-11-13T18:31:50.760Z,2.80
2018-11-13T18:34:19.646Z,3.23
2018-11-13T18:36:48.415Z,2.57
2018-11-13T18:39:22.412Z,2.30
2018-11-13T18:41:51.636Z,3.33
2018-11-13T18:44:21.699Z,3.30
2018-11-13T18:46:50.737Z,2.50
2018-11-13T18:49:19.743Z,2.87
2018-11-13T18:51:49.111Z,2.07
2018-11-13T18:54:18.275Z,3.17
2018-11-13T18:56:49.202Z,3.23
2018-11-13T18:59:18.635Z,3.23
2018-11-13T19:01:47.094Z,3.43
2018-11-13T19:04:16.299Z,3.43
2018-11-13T19:06:45.165Z,2.70
2018-11-13T19:09:14.668Z,3.53
2018-11-13T19:11:43.893Z,2.70
2018-11-13T19:14:12.918Z,2.50
2018-11-13T19:16:43.049Z,3.03
2018-11-13T19:19:12.168Z,2.87
2018-11-13T19:21:41.269Z,2.93
2018-11-13T19:24:11.746Z,3.73
2018-11-13T19:26:41.751Z,3.67
2018-11-13T19:29:10.748Z,3.50
2018-11-13T19:31:41.437Z,3.53
2018-11-13T19:34:10.550Z,3.73
2018-11-13T19:36:39.829Z,4.00
2018-11-13T19:39:11.694Z,3.40
2018-11-13T19:41:40.442Z,4.40
2018-11-13T19:44:14.515Z,4.83
2018-11-13T19:46:43.740Z,4.20
2018-11-13T19:49:12.753Z,4.83
2018-11-13T19:51:43.845Z,4.37
2018-11-13T19:54:13.608Z,4.33
2018-11-13T19:56:44.767Z,3.33
2018-11-13T19:59:14.483Z,3.70
2018-11-13T20:01:45.389Z,4.17
2018-11-13T20:04:14.936Z,4.03
2018-11-13T20:06:44.470Z,3.60
2018-11-13T20:09:15.459Z,3.80
2018-11-13T20:11:45.557Z,3.70
2018-11-13T20:14:15.934Z,3.73
2018-11-13T20:16:45.280Z,3.50
2018-11-13T20:19:15.425Z,3.47
2018-11-13T20:21:44.960Z,3.83
2018-11-13T20:24:14.140Z,3.63
2018-11-13T20:26:45.398Z,3.50
2018-11-13T20:29:15.851Z,4.07
2018-11-13T20:31:44.930Z,4.27
2018-11-13T20:34:13.655Z,4.33
2018-11-13T20:36:42.806Z,3.43
2018-11-13T20:39:14.822Z,4.40
2018-11-13T20:41:44.812Z,3.63
2018-11-13T20:44:14.617Z,3.27
2018-11-13T20:46:43.786Z,3.40
2018-11-13T20:49:12.641Z,3.93
2018-11-13T20:51:42.727Z,3.63
2018-11-13T20:54:11.772Z,4.07
2018-11-13T20:56:43.029Z,3.70
2018-11-13T20:59:13.278Z,4.10
2018-11-13T21:01:43.372Z,3.73
2018-11-13T21:04:12.943Z,4.63
2018-11-13T21:06:42.718Z,4.07
2018-11-13T21:09:11.340Z,4.83
2018-11-13T21:11:41.323Z,3.77
2018-11-13T21:14:10.140Z,4.17
2018-11-13T21:16:38.900Z,3.80
2018-11-13T21:19:07.783Z,4.10
2018-11-13T21:21:36.799Z,3.63
2018-11-13T21:24:05.957Z,3.77
2018-11-13T21:26:34.691Z,4.47
2018-11-13T21:29:03.235Z,3.83
2018-11-13T21:31:34.779Z,4.37
2018-11-13T21:34:03.543Z,4.10
2018-11-13T21:36:33.666Z,4.53
2018-11-13T21:39:02.333Z,4.47
2018-11-13T21:41:32.099Z,3.80
2018-11-13T21:44:00.727Z,4.23
2018-11-13T21:46:30.100Z,3.77
2018-11-13T21:49:00.145Z,3.90
2018-11-13T21:51:28.708Z,4.57
2018-11-13T21:53:57.475Z,4.33
2018-11-13T21:56:26.388Z,4.23
2018-11-13T21:58:55.801Z,4.70
2018-11-13T22:01:25.291Z,4.67
2018-11-13T22:03:54.347Z,4.70
2018-11-13T22:06:23.454Z,5.83
2018-11-13T22:08:52.936Z,4.20
2018-11-13T22:11:22.428Z,4.53
2018-11-13T22:13:51.909Z,4.50
2018-11-13T22:16:21.258Z,4.17
2018-11-13T22:18:50.352Z,4.40
2018-11-13T22:21:19.121Z,4.57
2018-11-13T22:23:48.532Z,4.67
2018-11-13T22:26:22.490Z,5.37
2018-11-13T22:28:52.593Z,3.77
2018-11-13T22:31:21.684Z,4.40
2018-11-13T22:33:51.152Z,4.23
2018-11-13T22:36:20.408Z,4.60
2018-11-13T22:38:49.348Z,4.97
2018-11-13T22:41:18.500Z,4.90
2018-11-13T22:43:47.503Z,4.83
2018-11-13T22:46:16.269Z,4.83
2018-11-13T22:48:46.025Z,5.30
2018-11-13T22:51:14.941Z,4.50
2018-11-13T22:53:44.911Z,4.33
2018-11-13T22:56:13.594Z,4.80
2018-11-13T22:58:42.565Z,4.57
2018-11-13T23:01:11.340Z,4.37
2018-11-13T23:03:40.620Z,5.80
2018-11-13T23:06:34.278Z,4.43
2018-11-13T23:09:05.852Z,4.87
2018-11-13T23:11:34.576Z,6.37
2018-11-13T23:14:03.382Z,4.83
2018-11-13T23:16:32.232Z,5.43
2018-11-13T23:19:01.516Z,5.13
2018-11-13T23:21:30.329Z,5.67
2018-11-13T23:23:59.032Z,5.47
2018-11-13T23:26:27.909Z,5.67
2018-11-13T23:28:56.724Z,5.50
2018-11-13T23:31:25.183Z,5.53
2018-11-13T23:33:54.425Z,4.90
2018-11-13T23:36:22.809Z,5.73
2018-11-13T23:38:51.580Z,5.67
2018-11-13T23:41:20.631Z,4.83
2018-11-13T23:43:49.609Z,5.03
2018-11-13T23:46:18.321Z,4.70
2018-11-13T23:48:46.966Z,4.90
2018-11-13T23:51:15.864Z,4.17
2018-11-13T23:53:45.224Z,4.57
2018-11-13T23:56:14.344Z,5.27
2018-11-13T23:58:42.793Z,5.40
